createdAt,value
2018-02-24T00:00:47.136Z,99.90
2018-02-24T00:01:50.353Z,99.90
2018-02-24T00:02:52.852Z,99.90
2018-02-24T00:03:55.372Z,99.90
2018-02-24T00:04:57.866Z,99.90
2018-02-24T00:06:00.351Z,99.90
2018-02-24T00:07:02.910Z,99.90
2018-02-24T00:08:05.437Z,99.90
2018-02-24T00:09:07.988Z,99.90
2018-02-24T00:10:10.473Z,99.90
2018-02-24T00:11:14.952Z,99.90
2018-02-24T00:12:17.484Z,99.90
2018-02-24T00:13:20.058Z,99.90
2018-02-24T00:14:22.546Z,99.90
2018-02-24T00:15:25.036Z,99.90
2018-02-24T00:16:28.325Z,99.90
2018-02-24T00:17:31.498Z,99.90
2018-02-24T00:18:34.113Z,99.90
2018-02-24T00:19:36.605Z,99.90
2018-02-24T00:20:39.145Z,99.90
2018-02-24T00:21:41.663Z,99.90
2018-02-24T00:22:44.134Z,99.90
2018-02-24T00:24:56.377Z,99.90
2018-02-24T00:25:59.634Z,99.90
2018-02-24T00:27:02.143Z,99.90
2018-02-24T00:28:05.384Z,99.90
2018-02-24T00:29:08.648Z,99.90
2018-02-24T00:30:11.274Z,99.90
2018-02-24T00:31:13.911Z,99.90
2018-02-24T00:32:16.419Z,99.90
2018-02-24T00:33:18.975Z,99.90
2018-02-24T00:34:21.467Z,99.90
2018-02-24T00:35:24.434Z,99.90
2018-02-24T00:36:26.921Z,99.90
2018-02-24T00:37:30.168Z,99.90
2018-02-24T00:38:33.449Z,99.90
2018-02-24T00:39:35.941Z,99.90
2018-02-24T00:40:39.284Z,99.90
2018-02-24T00:41:42.528Z,99.90
2018-02-24T00:42:45.819Z,99.90
2018-02-24T00:43:48.375Z,99.90
2018-02-24T00:44:51.106Z,99.90
2018-02-24T00:45:53.835Z,99.90
2018-02-24T00:46:57.918Z,99.90
2018-02-24T00:48:00.491Z,99.90
2018-02-24T00:49:03.127Z,99.90
2018-02-24T00:50:05.600Z,99.90
2018-02-24T00:51:09.336Z,99.90
2018-02-24T00:52:11.889Z,99.90
2018-02-24T00:53:15.398Z,99.90
2018-02-24T00:54:18.682Z,99.90
2018-02-24T00:55:21.362Z,99.90
2018-02-24T00:56:24.246Z,99.90
2018-02-24T00:57:26.944Z,99.90
2018-02-24T00:58:29.418Z,99.90
2018-02-24T00:59:31.953Z,99.90
2018-02-24T01:00:34.472Z,99.90
2018-02-24T01:01:36.958Z,99.90
2018-02-24T01:02:39.860Z,99.90
2018-02-24T01:03:42.343Z,99.90
2018-02-24T01:04:44.959Z,99.90
2018-02-24T01:05:47.486Z,99.90
2018-02-24T01:06:50.007Z,99.90
2018-02-24T01:07:53.243Z,99.90
2018-02-24T01:08:56.478Z,99.90
2018-02-24T01:09:59.976Z,99.90
2018-02-24T01:11:02.787Z,99.90
2018-02-24T01:12:05.265Z,99.90
2018-02-24T01:13:08.687Z,99.90
2018-02-24T01:14:11.158Z,99.90
2018-02-24T01:15:14.543Z,99.90
2018-02-24T01:16:17.382Z,99.90
2018-02-24T01:17:19.895Z,99.90
2018-02-24T01:18:22.393Z,99.90
2018-02-24T01:19:25.645Z,99.90
2018-02-24T01:20:28.621Z,99.90
2018-02-24T01:21:31.100Z,99.90
2018-02-24T01:22:34.374Z,99.90
2018-02-24T01:23:37.644Z,99.90
2018-02-24T01:24:40.238Z,99.90
2018-02-24T01:25:42.924Z,99.90
2018-02-24T01:26:46.198Z,99.90
2018-02-24T01:27:48.670Z,99.90
2018-02-24T01:28:51.166Z,99.90
2018-02-24T01:29:53.651Z,99.90
2018-02-24T01:30:56.992Z,99.90
2018-02-24T01:32:02.244Z,99.90
2018-02-24T01:33:04.721Z,99.90
2018-02-24T01:34:08.085Z,99.90
2018-02-24T01:35:10.687Z,99.90
2018-02-24T01:36:14.210Z,99.90
2018-02-24T01:37:16.774Z,99.90
2018-02-24T01:38:19.470Z,99.90
2018-02-24T01:39:23.124Z,99.90
2018-02-24T01:40:25.609Z,99.90
2018-02-24T01:41:28.730Z,99.90
2018-02-24T01:42:32.372Z,99.90
2018-02-24T01:43:35.049Z,99.90
2018-02-24T01:44:37.564Z,99.90
2018-02-24T01:45:40.047Z,99.90
2018-02-24T01:46:42.547Z,99.90
2018-02-24T01:47:45.026Z,99.90
2018-02-24T01:48:47.547Z,99.90
2018-02-24T01:49:50.047Z,99.90
2018-02-24T01:50:52.796Z,99.90
2018-02-24T01:51:55.441Z,99.90
2018-02-24T01:52:58.180Z,99.90
2018-02-24T01:54:01.695Z,99.90
2018-02-24T01:55:05.007Z,99.90
2018-02-24T01:56:08.529Z,99.90
2018-02-24T01:57:11.084Z,99.90
2018-02-24T01:58:14.360Z,99.90
2018-02-24T01:59:17.851Z,99.90
2018-02-24T02:00:21.115Z,99.90
2018-02-24T02:01:24.399Z,99.90
2018-02-24T02:02:27.456Z,99.90
2018-02-24T02:03:29.968Z,99.90
2018-02-24T02:04:32.454Z,99.90
2018-02-24T02:05:35.746Z,99.90
2018-02-24T02:06:38.195Z,99.90
2018-02-24T02:07:40.695Z,99.90
2018-02-24T02:08:43.184Z,99.90
2018-02-24T02:09:45.739Z,99.90
2018-02-24T02:10:48.756Z,99.90
2018-02-24T02:11:52.309Z,99.90
2018-02-24T02:12:54.920Z,99.90
2018-02-24T02:13:58.967Z,99.90
2018-02-24T02:15:02.229Z,99.90
2018-02-24T02:16:05.530Z,99.90
2018-02-24T02:17:08.996Z,99.90
2018-02-24T02:18:12.299Z,99.90
2018-02-24T02:19:14.818Z,99.90
2018-02-24T02:20:17.304Z,99.90
2018-02-24T02:21:20.604Z,99.90
2018-02-24T02:22:23.096Z,99.90
2018-02-24T02:23:25.646Z,99.90
2018-02-24T02:24:28.153Z,99.90
2018-02-24T02:25:30.965Z,99.90
2018-02-24T02:26:34.252Z,99.90
2018-02-24T02:27:36.928Z,99.90
2018-02-24T02:28:40.209Z,99.90
2018-02-24T02:29:42.719Z,99.90
2018-02-24T02:30:45.241Z,99.90
2018-02-24T02:31:47.845Z,99.90
2018-02-24T02:32:51.131Z,99.90
2018-02-24T02:33:53.959Z,99.90
2018-02-24T02:34:56.437Z,99.90
2018-02-24T02:36:00.473Z,99.90
2018-02-24T02:37:02.993Z,99.90
2018-02-24T02:38:05.477Z,99.90
2018-02-24T02:39:08.119Z,99.90
2018-02-24T02:40:11.155Z,99.90
2018-02-24T02:41:14.139Z,99.90
2018-02-24T02:42:17.423Z,99.90
2018-02-24T02:43:20.706Z,99.90
2018-02-24T02:44:23.377Z,99.90
2018-02-24T02:45:26.647Z,99.90
2018-02-24T02:46:29.140Z,99.90
2018-02-24T02:47:33.048Z,99.90
2018-02-24T02:48:35.585Z,99.90
2018-02-24T02:49:38.091Z,99.90
2018-02-24T02:50:40.828Z,99.90
2018-02-24T02:51:43.477Z,99.90
2018-02-24T02:52:46.035Z,99.90
2018-02-24T02:53:49.315Z,99.90
2018-02-24T02:54:51.808Z,99.90
2018-02-24T02:55:55.111Z,99.90
2018-02-24T02:56:57.910Z,99.90
2018-02-24T02:58:00.514Z,99.90
2018-02-24T02:59:03.856Z,99.90
2018-02-24T03:00:07.409Z,99.90
2018-02-24T03:01:10.696Z,99.90
2018-02-24T03:02:13.417Z,99.90
2018-02-24T03:03:16.239Z,99.90
2018-02-24T03:04:18.775Z,99.90
2018-02-24T03:05:21.396Z,99.90
2018-02-24T03:06:23.926Z,99.90
2018-02-24T03:07:26.392Z,99.90
2018-02-24T03:08:28.976Z,99.90
2018-02-24T03:09:31.458Z,99.90
2018-02-24T03:10:34.039Z,99.90
2018-02-24T03:11:36.596Z,99.90
2018-02-24T03:12:39.077Z,99.90
2018-02-24T03:13:42.394Z,99.90
2018-02-24T03:14:44.949Z,99.90
2018-02-24T03:15:47.467Z,99.90
2018-02-24T03:16:49.988Z,99.90
2018-02-24T03:17:52.492Z,99.90
2018-02-24T03:18:55.770Z,99.90
2018-02-24T03:19:58.873Z,99.90
2018-02-24T03:21:02.120Z,99.90
2018-02-24T03:22:05.370Z,99.90
2018-02-24T03:23:08.624Z,99.90
2018-02-24T03:24:11.368Z,99.90
2018-02-24T03:25:13.845Z,99.90
2018-02-24T03:26:16.343Z,99.90
2018-02-24T03:27:18.910Z,99.90
2018-02-24T03:28:22.179Z,99.90
2018-02-24T03:29:25.273Z,99.90
2018-02-24T03:30:28.579Z,99.90
2018-02-24T03:31:31.470Z,99.90
2018-02-24T03:32:33.949Z,99.90
2018-02-24T03:33:36.661Z,99.90
2018-02-24T03:34:39.153Z,99.90
2018-02-24T03:35:42.495Z,99.90
2018-02-24T03:36:45.732Z,99.90
2018-02-24T03:37:49.642Z,99.90
2018-02-24T03:38:52.156Z,99.90
2018-02-24T03:39:55.001Z,99.90
2018-02-24T03:40:57.492Z,99.90
2018-02-24T03:42:00.020Z,99.90
2018-02-24T03:43:02.838Z,99.90
2018-02-24T03:44:05.371Z,99.90
2018-02-24T03:45:09.444Z,99.90
2018-02-24T03:46:13.519Z,99.90
2018-02-24T03:47:16.031Z,99.90
2018-02-24T03:48:18.564Z,99.90
2018-02-24T03:49:21.036Z,99.90
2018-02-24T03:50:23.548Z,99.90
2018-02-24T03:51:26.228Z,99.90
2018-02-24T03:52:29.486Z,99.90
2018-02-24T03:53:32.031Z,99.90
2018-02-24T03:54:34.535Z,99.90
2018-02-24T03:55:37.012Z,99.90
2018-02-24T03:56:39.511Z,99.90
2018-02-24T03:57:42.005Z,99.90
2018-02-24T03:58:45.823Z,99.90
2018-02-24T03:59:48.481Z,99.90
2018-02-24T04:00:50.872Z,99.90
2018-02-24T04:01:54.160Z,99.90
2018-02-24T04:02:56.851Z,99.90
2018-02-24T04:03:59.406Z,99.90
2018-02-24T04:05:02.637Z,99.90
2018-02-24T04:06:05.897Z,99.90
2018-02-24T04:07:08.477Z,99.90
2018-02-24T04:08:11.675Z,99.90
2018-02-24T04:09:14.156Z,99.90
2018-02-24T04:10:16.718Z,99.90
2018-02-24T04:11:19.827Z,99.90
2018-02-24T04:12:23.101Z,99.90
2018-02-24T04:13:25.669Z,99.90
2018-02-24T04:14:28.172Z,99.90
2018-02-24T04:15:30.770Z,99.90
2018-02-24T04:16:34.043Z,99.90
2018-02-24T04:17:36.618Z,99.90
2018-02-24T04:18:39.115Z,99.90
2018-02-24T04:19:41.625Z,99.90
2018-02-24T04:20:44.132Z,99.90
2018-02-24T04:21:46.610Z,99.90
2018-02-24T04:22:49.101Z,99.90
2018-02-24T04:23:51.584Z,99.90
2018-02-24T04:24:54.943Z,99.90
2018-02-24T04:25:57.498Z,99.90
2018-02-24T04:26:59.975Z,99.90
2018-02-24T04:28:03.241Z,99.90
2018-02-24T04:29:05.725Z,99.90
2018-02-24T04:30:08.436Z,99.90
2018-02-24T04:31:10.926Z,99.90
2018-02-24T04:32:13.443Z,99.90
2018-02-24T04:33:16.767Z,99.90
2018-02-24T04:34:20.011Z,99.90
2018-02-24T04:35:23.316Z,99.90
2018-02-24T04:36:25.860Z,99.90
2018-02-24T04:37:29.863Z,99.90
2018-02-24T04:38:32.381Z,99.90
2018-02-24T04:39:35.786Z,99.90
2018-02-24T04:40:39.810Z,99.90
2018-02-24T04:41:42.379Z,99.90
2018-02-24T04:42:46.015Z,99.90
2018-02-24T04:43:48.563Z,99.90
2018-02-24T04:44:51.205Z,99.90
2018-02-24T04:45:54.673Z,99.90
2018-02-24T04:46:57.583Z,99.90
2018-02-24T04:48:00.123Z,99.90
2018-02-24T04:49:04.164Z,99.90
2018-02-24T04:50:06.636Z,99.90
2018-02-24T04:51:09.161Z,99.90
2018-02-24T04:52:12.250Z,99.90
2018-02-24T04:53:14.805Z,99.90
2018-02-24T04:54:17.526Z,99.90
2018-02-24T04:55:20.757Z,99.90
2018-02-24T04:56:23.298Z,99.90
2018-02-24T04:57:25.790Z,99.90
2018-02-24T04:58:28.290Z,99.90
2018-02-24T04:59:30.743Z,99.90
2018-02-24T05:00:35.552Z,99.90
2018-02-24T05:01:38.807Z,99.90
2018-02-24T05:02:41.290Z,99.90
2018-02-24T05:03:44.604Z,99.90
2018-02-24T05:04:47.096Z,99.90
2018-02-24T05:05:49.579Z,99.90
2018-02-24T05:06:52.841Z,99.90
2018-02-24T05:07:56.727Z,99.90
2018-02-24T05:08:59.277Z,99.90
2018-02-24T05:10:01.785Z,99.90
2018-02-24T05:11:04.257Z,99.90
2018-02-24T05:12:06.717Z,99.90
2018-02-24T05:13:09.242Z,99.90
2018-02-24T05:14:12.185Z,99.90
2018-02-24T05:15:14.703Z,99.90
2018-02-24T05:16:17.930Z,99.90
2018-02-24T05:17:21.193Z,99.90
2018-02-24T05:18:24.427Z,99.90
2018-02-24T05:19:27.730Z,99.90
2018-02-24T05:20:30.234Z,99.90
2018-02-24T05:21:33.581Z,99.90
2018-02-24T05:22:36.059Z,99.90
2018-02-24T05:23:39.317Z,99.90
2018-02-24T05:24:41.812Z,99.90
2018-02-24T05:25:46.415Z,99.90
2018-02-24T05:26:49.663Z,99.90
2018-02-24T05:27:52.158Z,99.90
2018-02-24T05:28:55.428Z,99.90
2018-02-24T05:29:57.927Z,99.90
2018-02-24T05:31:00.676Z,99.90
2018-02-24T05:32:04.544Z,99.90
2018-02-24T05:33:07.116Z,99.90
2018-02-24T05:34:10.391Z,99.90
2018-02-24T05:35:13.693Z,99.90
2018-02-24T05:36:16.286Z,99.90
2018-02-24T05:37:19.081Z,99.90
2018-02-24T05:38:22.477Z,99.90
2018-02-24T05:39:25.017Z,99.90
2018-02-24T05:40:28.067Z,99.90
2018-02-24T05:41:30.570Z,99.90
2018-02-24T05:42:33.113Z,99.90
2018-02-24T05:43:35.605Z,99.90
2018-02-24T05:44:38.285Z,99.90
2018-02-24T05:45:40.772Z,99.90
2018-02-24T05:46:43.274Z,99.90
2018-02-24T05:47:45.775Z,99.90
2018-02-24T05:48:48.296Z,99.90
2018-02-24T05:49:50.782Z,99.90
2018-02-24T05:50:53.319Z,99.90
2018-02-24T05:51:56.246Z,99.90
2018-02-24T05:52:58.740Z,99.90
2018-02-24T05:54:01.208Z,99.90
2018-02-24T05:55:03.699Z,99.90
2018-02-24T05:56:06.186Z,99.90
2018-02-24T05:57:08.786Z,99.90
2018-02-24T05:58:11.407Z,99.90
2018-02-24T05:59:14.424Z,99.90
2018-02-24T06:00:16.814Z,99.90
2018-02-24T06:01:20.084Z,99.90
2018-02-24T06:02:23.266Z,99.90
2018-02-24T06:03:25.790Z,99.90
2018-02-24T06:04:28.297Z,99.90
2018-02-24T06:05:30.766Z,99.90
2018-02-24T06:06:34.006Z,99.90
2018-02-24T06:07:36.484Z,99.90
2018-02-24T06:08:39.011Z,99.90
2018-02-24T06:09:41.494Z,99.90
2018-02-24T06:10:44.798Z,99.90
2018-02-24T06:11:47.359Z,99.90
2018-02-24T06:12:50.617Z,99.90
2018-02-24T06:13:53.862Z,99.90
2018-02-24T06:14:56.343Z,99.90
2018-02-24T06:15:59.456Z,99.90
2018-02-24T06:17:01.929Z,99.90
2018-02-24T06:18:05.684Z,99.90
2018-02-24T06:19:08.153Z,99.90
2018-02-24T06:20:10.648Z,99.90
2018-02-24T06:21:13.918Z,99.90
2018-02-24T06:22:16.465Z,99.90
2018-02-24T06:23:19.094Z,99.90
2018-02-24T06:24:21.564Z,99.90
2018-02-24T06:25:24.867Z,99.90
2018-02-24T06:26:27.360Z,99.90
2018-02-24T06:27:30.385Z,99.90
2018-02-24T06:28:32.898Z,99.90
2018-02-24T06:29:36.145Z,99.90
2018-02-24T06:30:39.382Z,99.90
2018-02-24T06:31:42.635Z,99.90
2018-02-24T06:32:46.005Z,99.90
2018-02-24T06:33:48.486Z,99.90
2018-02-24T06:34:50.967Z,99.90
2018-02-24T06:35:53.455Z,99.90
2018-02-24T06:36:56.546Z,99.90
2018-02-24T06:37:59.128Z,99.90
2018-02-24T06:39:01.688Z,99.90
2018-02-24T06:40:04.970Z,99.90
2018-02-24T06:41:07.509Z,99.90
2018-02-24T06:42:10.002Z,99.90
2018-02-24T06:43:12.507Z,99.90
2018-02-24T06:44:15.114Z,99.90
2018-02-24T06:45:17.594Z,99.90
2018-02-24T06:46:20.058Z,99.90
2018-02-24T06:47:22.566Z,99.90
2018-02-24T06:48:25.796Z,99.90
2018-02-24T06:49:29.128Z,99.90
2018-02-24T06:50:32.392Z,99.90
2018-02-24T06:51:35.625Z,99.90
2018-02-24T06:52:38.893Z,99.90
2018-02-24T06:53:41.367Z,99.90
2018-02-24T06:54:43.927Z,99.90
2018-02-24T06:55:46.439Z,99.90
2018-02-24T06:56:48.910Z,99.90
2018-02-24T06:57:51.392Z,99.90
2018-02-24T06:58:54.975Z,99.90
2018-02-24T06:59:57.502Z,99.90
2018-02-24T07:01:00.227Z,99.90
2018-02-24T07:02:02.753Z,99.90
2018-02-24T07:03:06.240Z,99.90
2018-02-24T07:04:09.531Z,99.90
2018-02-24T07:05:13.303Z,99.90
2018-02-24T07:06:15.843Z,99.90
2018-02-24T07:07:18.372Z,99.90
2018-02-24T07:08:20.978Z,99.90
2018-02-24T07:09:23.453Z,99.90
2018-02-24T07:10:28.594Z,99.90
2018-02-24T07:11:31.175Z,99.90
2018-02-24T07:12:33.677Z,99.90
2018-02-24T07:13:36.218Z,99.90
2018-02-24T07:14:38.850Z,99.90
2018-02-24T07:15:41.342Z,99.90
2018-02-24T07:16:43.836Z,99.90
2018-02-24T07:17:47.152Z,99.90
2018-02-24T07:18:50.506Z,99.90
2018-02-24T07:19:53.767Z,99.90
2018-02-24T07:20:57.040Z,99.90
2018-02-24T07:21:59.548Z,99.90
2018-02-24T07:23:02.076Z,99.90
2018-02-24T07:24:04.612Z,99.90
2018-02-24T07:25:07.093Z,99.90
2018-02-24T07:26:10.346Z,99.90
2018-02-24T07:27:13.580Z,99.90
2018-02-24T07:28:17.494Z,99.90
2018-02-24T07:29:20.152Z,99.90
2018-02-24T07:30:23.459Z,99.90
2018-02-24T07:31:26.016Z,99.90
2018-02-24T07:32:28.471Z,99.90
2018-02-24T07:33:31.782Z,99.90
2018-02-24T07:34:34.430Z,99.90
2018-02-24T07:35:36.901Z,99.90
2018-02-24T07:36:39.414Z,99.90
2018-02-24T07:37:41.904Z,99.90
2018-02-24T07:38:45.158Z,99.90
2018-02-24T07:39:47.714Z,99.90
2018-02-24T07:40:50.547Z,99.90
2018-02-24T07:41:54.114Z,99.90
2018-02-24T07:42:56.660Z,99.90
2018-02-24T07:43:59.951Z,99.90
2018-02-24T07:45:02.498Z,99.90
2018-02-24T07:46:05.063Z,99.90
2018-02-24T07:47:09.466Z,99.90
2018-02-24T07:48:12.714Z,99.90
2018-02-24T07:49:15.224Z,99.90
2018-02-24T07:50:18.568Z,99.90
2018-02-24T07:51:21.082Z,99.90
2018-02-24T07:52:23.552Z,99.90
2018-02-24T07:53:26.035Z,99.90
2018-02-24T07:54:29.766Z,99.90
2018-02-24T07:55:32.332Z,99.90
2018-02-24T07:56:35.859Z,99.90
2018-02-24T07:57:38.416Z,99.90
2018-02-24T07:58:40.908Z,99.90
2018-02-24T07:59:43.696Z,99.90
2018-02-24T08:00:46.269Z,99.90
2018-02-24T08:01:48.804Z,99.90
2018-02-24T08:02:51.478Z,99.90
2018-02-24T08:03:53.982Z,99.90
2018-02-24T08:04:56.769Z,99.90
2018-02-24T08:06:00.002Z,99.90
2018-02-24T08:07:02.536Z,99.90
2018-02-24T08:08:05.019Z,99.90
2018-02-24T08:09:07.542Z,99.90
2018-02-24T08:10:10.095Z,99.90
2018-02-24T08:11:12.579Z,99.90
2018-02-24T08:12:15.876Z,99.90
2018-02-24T08:13:19.181Z,99.90
2018-02-24T08:14:21.774Z,99.90
2018-02-24T08:15:25.012Z,99.30
2018-02-24T08:16:29.055Z,98.80
2018-02-24T08:17:31.709Z,98.70
2018-02-24T08:18:34.295Z,97.90
2018-02-24T08:19:36.756Z,98.20
2018-02-24T08:20:40.076Z,97.10
2018-02-24T08:21:43.792Z,96.50
2018-02-24T08:22:46.318Z,96.50
2018-02-24T08:23:49.661Z,96.10
2018-02-24T08:24:52.321Z,95.80
2018-02-24T08:25:54.888Z,95.80
2018-02-24T08:26:57.596Z,95.80
2018-02-24T08:28:01.001Z,94.80
2018-02-24T08:29:04.908Z,94.80
2018-02-24T08:30:08.191Z,94.80
2018-02-24T08:31:11.544Z,95.20
2018-02-24T08:32:14.062Z,94.70
2018-02-24T08:33:16.568Z,94.50
2018-02-24T08:34:19.823Z,94.50
2018-02-24T08:35:22.340Z,94.50
2018-02-24T08:36:25.718Z,94.40
2018-02-24T08:37:28.351Z,94.40
2018-02-24T08:38:30.887Z,94.20
2018-02-24T08:39:33.366Z,94.10
2018-02-24T08:40:36.695Z,94.60
2018-02-24T08:41:39.989Z,94.70
2018-02-24T08:42:42.503Z,94.70
2018-02-24T08:43:44.971Z,94.40
2018-02-24T08:44:47.535Z,94.80
2018-02-24T08:45:50.098Z,95.10
2018-02-24T08:46:52.598Z,94.60
2018-02-24T08:47:55.082Z,94.10
2018-02-24T08:48:57.549Z,94.60
2018-02-24T08:50:00.089Z,93.70
2018-02-24T08:51:02.541Z,94.20
2018-02-24T08:52:05.794Z,94.20
2018-02-24T08:53:08.262Z,94.30
2018-02-24T08:54:10.762Z,95.00
2018-02-24T08:55:14.003Z,93.90
2018-02-24T08:56:17.226Z,94.20
2018-02-24T08:57:19.718Z,94.20
2018-02-24T08:58:22.199Z,94.40
2018-02-24T08:59:25.494Z,93.10
2018-02-24T09:00:27.954Z,93.00
2018-02-24T09:01:31.248Z,91.70
2018-02-24T09:02:33.750Z,91.70
2018-02-24T09:03:36.287Z,91.70
2018-02-24T09:04:38.855Z,91.80
2018-02-24T09:05:42.113Z,92.20
2018-02-24T09:06:44.653Z,92.20
2018-02-24T09:07:47.963Z,93.30
2018-02-24T09:08:51.028Z,93.30
2018-02-24T09:09:54.273Z,93.80
2018-02-24T09:10:57.537Z,94.00
2018-02-24T09:12:00.038Z,94.00
2018-02-24T09:13:02.513Z,94.40
2018-02-24T09:14:04.975Z,94.80
2018-02-24T09:15:08.959Z,94.60
2018-02-24T09:16:12.273Z,95.00
2018-02-24T09:17:17.196Z,93.80
2018-02-24T09:18:19.693Z,93.80
2018-02-24T09:19:22.642Z,93.50
2018-02-24T09:20:26.045Z,94.00
2018-02-24T09:21:28.552Z,94.00
2018-02-24T09:22:31.024Z,93.90
2018-02-24T09:23:33.478Z,94.80
2018-02-24T09:24:35.976Z,93.60
2018-02-24T09:25:39.258Z,94.50
2018-02-24T09:26:41.762Z,94.50
2018-02-24T09:27:45.005Z,95.30
2018-02-24T09:28:48.238Z,95.00
2018-02-24T09:29:51.476Z,93.60
2018-02-24T09:30:54.751Z,94.10
2018-02-24T09:31:57.268Z,94.10
2018-02-24T09:32:59.900Z,93.80
2018-02-24T09:34:02.389Z,93.40
2018-02-24T09:35:04.944Z,93.10
2018-02-24T09:36:07.691Z,93.50
2018-02-24T09:37:10.253Z,93.30
2018-02-24T09:38:12.763Z,93.20
2018-02-24T09:39:15.457Z,93.00
2018-02-24T09:40:19.795Z,93.70
2018-02-24T09:41:22.323Z,93.10
2018-02-24T09:42:26.285Z,93.50
2018-02-24T09:43:28.750Z,93.50
2018-02-24T09:44:31.354Z,93.00
2018-02-24T09:45:33.853Z,93.30
2018-02-24T09:46:37.101Z,93.40
2018-02-24T09:47:39.695Z,92.70
2018-02-24T09:48:42.161Z,92.80
2018-02-24T09:49:45.391Z,91.90
2018-02-24T09:50:47.916Z,91.70
2018-02-24T09:51:50.387Z,91.80
2018-02-24T09:52:52.850Z,92.30
2018-02-24T09:53:55.347Z,91.50
2018-02-24T09:54:57.843Z,92.70
2018-02-24T09:56:00.325Z,92.00
2018-02-24T09:57:02.802Z,92.30
2018-02-24T09:58:05.273Z,91.90
2018-02-24T09:59:07.744Z,91.20
2018-02-24T10:00:10.298Z,91.00
2018-02-24T10:01:12.799Z,90.80
2018-02-24T10:02:15.271Z,90.90
2018-02-24T10:03:17.752Z,90.60
2018-02-24T10:04:20.238Z,89.80
2018-02-24T10:05:23.462Z,91.20
2018-02-24T10:06:25.951Z,91.20
2018-02-24T10:07:28.438Z,90.10
2018-02-24T10:08:31.672Z,90.90
2018-02-24T10:09:34.216Z,90.70
2018-02-24T10:10:37.443Z,90.00
2018-02-24T10:11:39.924Z,89.90
2018-02-24T10:12:42.414Z,90.00
2018-02-24T10:13:45.632Z,90.10
2018-02-24T10:14:48.164Z,90.10
2018-02-24T10:15:50.694Z,90.00
2018-02-24T10:16:53.937Z,91.40
2018-02-24T10:17:57.231Z,91.50
2018-02-24T10:18:59.760Z,91.50
2018-02-24T10:20:02.203Z,91.30
2018-02-24T10:21:04.675Z,91.70
2018-02-24T10:22:07.156Z,91.70
2018-02-24T10:23:09.654Z,90.60
2018-02-24T10:24:12.133Z,91.90
2018-02-24T10:25:15.391Z,92.60
2018-02-24T10:26:17.906Z,92.60
2018-02-24T10:27:21.149Z,91.60
2018-02-24T10:28:24.405Z,91.50
2018-02-24T10:29:26.899Z,91.50
2018-02-24T10:30:29.354Z,91.70
2018-02-24T10:31:31.816Z,91.00
2018-02-24T10:32:34.515Z,88.40
2018-02-24T10:33:36.978Z,87.50
2018-02-24T10:34:39.569Z,88.90
2018-02-24T10:35:42.046Z,88.30
2018-02-24T10:36:45.312Z,91.20
2018-02-24T10:37:48.557Z,90.20
2018-02-24T10:38:51.837Z,90.70
2018-02-24T10:39:54.358Z,90.70
2018-02-24T10:40:56.829Z,91.50
2018-02-24T10:41:59.298Z,90.30
2018-02-24T10:43:01.770Z,88.50
2018-02-24T10:44:04.343Z,90.10
2018-02-24T10:45:06.846Z,90.60
2018-02-24T10:46:09.308Z,88.10
2018-02-24T10:47:11.818Z,89.10
2018-02-24T10:48:14.303Z,89.90
2018-02-24T10:49:17.536Z,90.80
2018-02-24T10:50:20.029Z,90.80
2018-02-24T10:51:22.520Z,91.00
2018-02-24T10:52:25.036Z,89.80
2018-02-24T10:53:27.569Z,91.40
2018-02-24T10:54:30.804Z,90.30
2018-02-24T10:55:34.053Z,90.40
2018-02-24T10:56:37.324Z,90.40
2018-02-24T10:57:39.811Z,90.40
2018-02-24T10:58:43.151Z,88.80
2018-02-24T10:59:45.661Z,88.70
2018-02-24T11:00:48.480Z,90.00
2018-02-24T11:01:50.662Z,89.90
2018-02-24T11:02:53.181Z,89.40
2018-02-24T11:03:56.431Z,90.60
2018-02-24T11:04:58.956Z,90.50
2018-02-24T11:06:01.457Z,88.60
2018-02-24T11:07:04.687Z,90.00
2018-02-24T11:08:07.173Z,90.00
2018-02-24T11:09:09.984Z,88.20
2018-02-24T11:10:12.450Z,90.00
2018-02-24T11:11:14.953Z,90.80
2018-02-24T11:12:17.464Z,90.30
2018-02-24T11:13:19.935Z,89.70
2018-02-24T11:14:22.404Z,88.00
2018-02-24T11:15:24.930Z,89.20
2018-02-24T11:16:27.439Z,86.00
2018-02-24T11:17:30.654Z,87.70
2018-02-24T11:18:33.887Z,87.70
2018-02-24T11:19:36.355Z,87.50
2018-02-24T11:20:39.661Z,87.40
2018-02-24T11:21:42.136Z,86.80
2018-02-24T11:22:44.633Z,84.70
2018-02-24T11:23:48.171Z,83.70
2018-02-24T11:24:50.680Z,83.70
2018-02-24T11:25:53.224Z,83.20
2018-02-24T11:26:57.182Z,81.70
2018-02-24T11:27:59.680Z,81.70
2018-02-24T11:29:02.850Z,80.70
2018-02-24T11:30:05.395Z,81.60
2018-02-24T11:31:08.648Z,79.90
2018-02-24T11:32:11.895Z,79.00
2018-02-24T11:33:14.398Z,79.00
2018-02-24T11:34:17.776Z,79.70
2018-02-24T11:35:20.258Z,79.60
2018-02-24T11:36:23.542Z,80.40
2018-02-24T11:37:26.041Z,79.50
2018-02-24T11:38:30.402Z,80.60
2018-02-24T11:39:38.782Z,80.10
2018-02-24T11:40:41.375Z,80.60
2018-02-24T11:41:44.692Z,81.10
2018-02-24T11:42:47.233Z,79.70
2018-02-24T11:43:49.710Z,80.10
2018-02-24T11:44:52.214Z,80.20
2018-02-24T11:45:55.472Z,82.20
2018-02-24T11:46:58.866Z,82.30
2018-02-24T11:48:01.323Z,82.10
2018-02-24T11:49:04.571Z,81.20
2018-02-24T11:50:07.834Z,80.10
2018-02-24T11:51:10.348Z,80.10
2018-02-24T11:52:13.732Z,79.70
2018-02-24T11:53:16.248Z,79.70
2018-02-24T11:54:18.756Z,79.60
2018-02-24T11:55:21.467Z,81.00
2018-02-24T11:56:24.850Z,82.60
2018-02-24T11:57:27.552Z,82.60
2018-02-24T11:58:30.092Z,84.00
2018-02-24T11:59:32.647Z,81.70
2018-02-24T12:00:35.185Z,83.50
2018-02-24T12:01:38.535Z,81.20
2018-02-24T12:02:41.046Z,81.20
2018-02-24T12:03:43.536Z,82.80
2018-02-24T12:04:46.021Z,84.10
2018-02-24T12:05:48.498Z,83.90
2018-02-24T12:06:50.982Z,82.80
2018-02-24T12:07:54.261Z,87.70
2018-02-24T12:08:56.761Z,87.70
2018-02-24T12:10:00.017Z,82.50
2018-02-24T12:11:02.584Z,82.40
2018-02-24T12:12:05.049Z,82.10
2018-02-24T12:13:08.321Z,84.20
2018-02-24T12:14:10.823Z,83.70
2018-02-24T12:15:14.163Z,84.40
2018-02-24T12:16:16.651Z,84.30
2018-02-24T12:17:19.126Z,83.80
2018-02-24T12:18:22.421Z,84.10
2018-02-24T12:19:24.890Z,83.40
2018-02-24T12:20:28.143Z,84.20
2018-02-24T12:21:30.749Z,84.00
2018-02-24T12:22:34.084Z,85.10
2018-02-24T12:23:36.639Z,84.90
2018-02-24T12:24:39.870Z,85.00
2018-02-24T12:25:42.367Z,84.80
2018-02-24T12:26:45.665Z,83.00
2018-02-24T12:27:48.138Z,83.00
2018-02-24T12:28:50.636Z,83.50
2018-02-24T12:29:53.169Z,86.70
2018-02-24T12:30:55.721Z,86.10
2018-02-24T12:31:59.001Z,83.20
2018-02-24T12:33:01.532Z,83.00
2018-02-24T12:34:04.050Z,83.50
2018-02-24T12:35:06.524Z,82.40
2018-02-24T12:36:09.008Z,84.20
2018-02-24T12:37:13.413Z,85.10
2018-02-24T12:38:15.976Z,87.20
2018-02-24T12:39:19.937Z,86.90
2018-02-24T12:40:23.467Z,86.70
2018-02-24T12:41:26.752Z,86.60
2018-02-24T12:42:29.284Z,86.70
2018-02-24T12:43:31.831Z,86.00
2018-02-24T12:44:34.339Z,88.50
2018-02-24T12:45:36.888Z,89.80
2018-02-24T12:46:39.398Z,87.70
2018-02-24T12:47:44.766Z,87.10
2018-02-24T12:48:47.286Z,86.60
2018-02-24T12:49:49.968Z,87.20
2018-02-24T12:50:52.646Z,87.40
2018-02-24T12:51:55.178Z,86.40
2018-02-24T12:52:57.680Z,89.20
2018-02-24T12:54:00.952Z,88.10
2018-02-24T12:55:03.656Z,88.10
2018-02-24T12:56:06.896Z,88.20
2018-02-24T12:57:17.460Z,88.10
2018-02-24T12:58:20.030Z,88.20
2018-02-24T12:59:23.408Z,89.80
2018-02-24T13:00:25.922Z,89.70
2018-02-24T13:01:28.432Z,88.10
2018-02-24T13:02:31.668Z,89.30
2018-02-24T13:03:34.915Z,88.70
2018-02-24T13:04:38.535Z,89.50
2018-02-24T13:05:41.325Z,89.60
2018-02-24T13:06:43.796Z,89.40
2018-02-24T13:07:46.265Z,86.10
2018-02-24T13:08:48.745Z,88.20
2018-02-24T13:09:51.324Z,86.60
2018-02-24T13:10:53.809Z,86.80
2018-02-24T13:11:56.386Z,87.70
2018-02-24T13:12:59.216Z,87.50
2018-02-24T13:14:01.787Z,88.90
2018-02-24T13:15:04.327Z,89.40
2018-02-24T13:16:06.828Z,90.20
2018-02-24T13:17:09.321Z,87.90
2018-02-24T13:18:11.814Z,88.80
2018-02-24T13:19:15.043Z,89.90
2018-02-24T13:20:17.555Z,89.90
2018-02-24T13:21:20.064Z,90.30
2018-02-24T13:22:23.427Z,87.70
2018-02-24T13:23:25.945Z,87.70
2018-02-24T13:24:29.202Z,86.80
2018-02-24T13:25:31.995Z,86.80
2018-02-24T13:26:34.769Z,86.90
2018-02-24T13:27:37.361Z,86.50
2018-02-24T13:28:39.855Z,85.60
2018-02-24T13:29:42.302Z,87.20
2018-02-24T13:30:44.974Z,86.20